ADDS METAR Data INFO
IDs: Format: Raw Decoded Include TAF

Data at: 1858 UTC 22 Sep 2017

METAR for:LFST (Strasbourg/Entzheim, --, FR)
Text:LFST 221830Z AUTO VRB02KT CAVOK 16/12 Q1021 NOSIG
Temperature: 16.0°C ( 61°F)
Dewpoint: 12.0°C ( 54°F) [RH = 77%]
Pressure (altimeter):30.15 inches Hg (1021.0 mb)
Winds:variable direction winds at 2 MPH (2 knots; 1.0 m/s)
Visibility:6 or more sm (10+ km)
Ceiling:ceiling and visibility are OK
Clouds:unknown

TAF for:LFST (Strasbourg/Entzheim, --, FR) issued at 1700 UTC 22 Sep 2017
Text:TAF LFST 221700Z 2218/2318 VRB03KT CAVOK
Forecast period:1800 UTC 22 September 2017 to 1800 UTC 23 September 2017
Forecast type:FROM: standard forecast or significant change
Winds:variable direction winds at 3 MPH (3 knots; 1.5 m/s)
Visibility:6 or more sm (10+ km)
Clouds:missing
Weather:NSW (no significant weather)
Text:PROB40 2302/2307 3000 BCFG
Forecast period:0200 to 0700 UTC 23 September 2017
Forecast type:PROBABLE: 40 percent likelihood of the following during this time
Visibility: 1.86 sm ( 2.99 km)
Clouds:missing
Weather:BCFG (patches of fog)